createdAt,value
2022-11-28T00:01:57.146Z,43.00
2022-11-28T00:04:30.090Z,41.60
2022-11-28T00:07:01.973Z,40.40
2022-11-28T00:09:33.687Z,39.50
2022-11-28T00:12:05.412Z,39.60
2022-11-28T00:14:37.092Z,38.70
2022-11-28T00:17:08.641Z,38.10
2022-11-28T00:19:40.445Z,38.70
2022-11-28T00:22:12.018Z,38.30
2022-11-28T00:24:45.971Z,38.30
2022-11-28T00:27:17.641Z,37.60
2022-11-28T00:29:49.445Z,35.30
2022-11-28T00:32:21.199Z,35.60
2022-11-28T00:34:52.959Z,35.50
2022-11-28T00:37:24.615Z,35.00
2022-11-28T00:39:56.213Z,35.60
2022-11-28T00:42:27.834Z,36.00
2022-11-28T00:44:59.489Z,36.20
2022-11-28T00:47:31.166Z,35.00
2022-11-28T00:50:02.867Z,33.30
2022-11-28T00:52:35.963Z,34.90
2022-11-28T00:55:08.208Z,34.30
2022-11-28T00:57:39.788Z,33.70
2022-11-28T01:00:17.722Z,35.50
2022-11-28T01:02:52.803Z,34.90
2022-11-28T01:05:24.591Z,35.60
2022-11-28T01:07:56.582Z,32.40
2022-11-28T01:10:30.122Z,32.80
2022-11-28T01:13:01.770Z,33.70
2022-11-28T01:15:33.417Z,34.90
2022-11-28T01:18:05.599Z,32.00
2022-11-28T01:20:37.609Z,33.90
2022-11-28T01:23:09.299Z,32.30
2022-11-28T01:25:40.928Z,34.80
2022-11-28T01:28:12.516Z,33.10
2022-11-28T01:30:44.275Z,34.70
2022-11-28T01:33:15.926Z,32.00
2022-11-28T01:35:57.209Z,35.40
2022-11-28T01:38:29.420Z,34.70
2022-11-28T01:41:01.021Z,34.60
2022-11-28T01:43:32.697Z,34.00
2022-11-28T01:46:05.415Z,34.80
2022-11-28T01:48:43.046Z,31.90
2022-11-28T01:51:15.106Z,35.10
2022-11-28T01:53:49.377Z,36.60
2022-11-28T01:56:25.956Z,35.00
2022-11-28T01:59:03.406Z,34.70
2022-11-28T02:01:35.151Z,33.50
2022-11-28T02:04:07.470Z,35.00
2022-11-28T02:06:39.245Z,34.60
2022-11-28T02:09:12.713Z,34.90
2022-11-28T02:12:03.277Z,36.80
2022-11-28T02:15:02.185Z,35.80
2022-11-28T02:17:45.151Z,33.90
2022-11-28T02:20:55.898Z,34.20
2022-11-28T02:23:38.817Z,35.10
2022-11-28T02:26:40.828Z,33.60
2022-11-28T02:29:35.372Z,32.40
2022-11-28T02:32:17.840Z,34.40
2022-11-28T02:34:58.263Z,35.00
2022-11-28T02:37:36.057Z,33.20
2022-11-28T02:40:17.203Z,32.30
2022-11-28T02:43:02.692Z,32.30
2022-11-28T02:45:41.686Z,31.90
2022-11-28T02:48:19.624Z,32.90
2022-11-28T02:50:59.826Z,33.10
2022-11-28T02:53:34.834Z,33.90
2022-11-28T02:56:07.405Z,33.70
2022-11-28T02:58:39.080Z,33.10
2022-11-28T03:01:19.098Z,33.40
2022-11-28T03:04:04.801Z,34.30
2022-11-28T03:06:48.638Z,33.90
2022-11-28T03:09:39.813Z,35.20
2022-11-28T03:12:21.833Z,38.20
2022-11-28T03:14:56.902Z,34.50
2022-11-28T03:17:44.914Z,36.50
2022-11-28T03:20:25.327Z,37.60
2022-11-28T03:23:09.369Z,38.10
2022-11-28T03:25:49.324Z,39.20
2022-11-28T03:28:28.339Z,40.80
2022-11-28T03:31:02.258Z,40.60
2022-11-28T03:33:37.759Z,39.80
2022-11-28T03:36:17.248Z,41.20
2022-11-28T03:38:54.251Z,40.40
2022-11-28T03:41:30.884Z,40.90
2022-11-28T03:44:04.854Z,42.40
2022-11-28T03:46:39.955Z,41.50
2022-11-28T03:49:14.578Z,42.30
2022-11-28T03:51:50.934Z,42.70
2022-11-28T03:54:28.683Z,43.10
2022-11-28T03:57:07.111Z,39.90
2022-11-28T03:59:42.837Z,39.70
2022-11-28T04:02:21.605Z,41.10
2022-11-28T04:04:59.542Z,38.80
2022-11-28T04:07:37.863Z,39.90
2022-11-28T04:10:22.263Z,39.00
2022-11-28T04:13:00.351Z,39.80
2022-11-28T04:15:39.082Z,40.60
2022-11-28T04:18:21.824Z,40.30
2022-11-28T04:20:59.441Z,41.10
2022-11-28T04:23:33.562Z,39.20
2022-11-28T04:26:10.907Z,39.90
2022-11-28T04:28:44.271Z,37.00
2022-11-28T04:31:19.177Z,38.90
2022-11-28T04:33:57.402Z,40.00
2022-11-28T04:36:30.194Z,36.90
2022-11-28T04:39:03.233Z,37.30
2022-11-28T04:41:37.562Z,36.60
2022-11-28T04:44:15.012Z,37.80
2022-11-28T04:46:51.885Z,36.70
2022-11-28T04:49:24.064Z,36.60
2022-11-28T04:52:04.254Z,35.90
2022-11-28T04:54:42.970Z,37.30
2022-11-28T04:57:20.154Z,37.10
2022-11-28T04:59:52.733Z,33.00
2022-11-28T05:02:26.047Z,37.00
2022-11-28T05:04:58.381Z,37.00
2022-11-28T05:07:30.052Z,34.00
2022-11-28T05:10:01.704Z,33.60
2022-11-28T05:12:33.376Z,34.40
2022-11-28T05:15:05.787Z,32.90
2022-11-28T05:17:42.147Z,33.70
2022-11-28T05:20:15.363Z,29.20
2022-11-28T05:22:53.216Z,32.30
2022-11-28T05:25:25.022Z,29.40
2022-11-28T05:27:57.156Z,29.60
2022-11-28T05:30:28.766Z,28.50
2022-11-28T05:33:02.296Z,27.60
2022-11-28T05:35:33.946Z,29.00
2022-11-28T05:38:08.254Z,28.70
2022-11-28T05:40:44.509Z,28.80
2022-11-28T05:43:16.289Z,27.70
2022-11-28T05:45:48.246Z,27.50
2022-11-28T05:48:20.046Z,26.50
2022-11-28T05:50:52.077Z,28.90
2022-11-28T05:53:23.757Z,29.00
2022-11-28T05:55:55.424Z,28.70
2022-11-28T05:58:27.265Z,28.50
2022-11-28T06:00:58.848Z,29.00
2022-11-28T06:03:30.535Z,29.10
2022-11-28T06:06:02.172Z,28.90
2022-11-28T06:08:33.874Z,28.50
2022-11-28T06:11:05.597Z,30.60
2022-11-28T06:13:37.684Z,29.80
2022-11-28T06:16:12.214Z,31.20
2022-11-28T06:18:44.272Z,28.40
2022-11-28T06:21:17.590Z,31.50
2022-11-28T06:23:49.444Z,31.10
2022-11-28T06:26:23.341Z,31.60
2022-11-28T06:28:56.523Z,30.20
2022-11-28T06:31:30.168Z,30.80
2022-11-28T06:34:02.151Z,32.00
2022-11-28T06:36:34.102Z,30.30
2022-11-28T06:39:06.006Z,33.40
2022-11-28T06:41:37.642Z,31.10
2022-11-28T06:44:09.611Z,30.30
2022-11-28T06:46:41.455Z,29.90
2022-11-28T06:49:14.209Z,29.90
2022-11-28T06:51:46.422Z,32.70
2022-11-28T06:54:18.529Z,30.80
2022-11-28T06:56:50.521Z,29.20
2022-11-28T06:59:22.511Z,34.20
2022-11-28T07:01:55.682Z,31.70
2022-11-28T07:04:27.428Z,32.40
2022-11-28T07:06:59.129Z,33.00
2022-11-28T07:09:32.187Z,30.50
2022-11-28T07:12:04.475Z,33.00
2022-11-28T07:14:36.554Z,30.70
2022-11-28T07:17:08.349Z,31.50
2022-11-28T07:19:40.772Z,31.40
2022-11-28T07:22:13.831Z,31.90
2022-11-28T07:24:45.671Z,30.40
2022-11-28T07:27:17.921Z,32.30
2022-11-28T07:29:49.662Z,33.40
2022-11-28T07:32:21.478Z,33.00
2022-11-28T07:34:53.222Z,33.50
2022-11-28T07:37:24.887Z,35.00
2022-11-28T07:39:56.911Z,34.80
2022-11-28T07:42:28.911Z,35.00
2022-11-28T07:45:00.665Z,32.10
2022-11-28T07:47:32.507Z,32.20
2022-11-28T07:50:04.435Z,32.60
2022-11-28T07:52:36.123Z,30.60
2022-11-28T07:55:12.618Z,34.80
2022-11-28T07:57:44.281Z,31.50
2022-11-28T08:00:26.438Z,33.30
2022-11-28T08:02:58.182Z,33.00
2022-11-28T08:05:30.214Z,32.10
2022-11-28T08:08:01.986Z,32.10
2022-11-28T08:10:33.758Z,33.80
2022-11-28T08:13:05.420Z,31.00
2022-11-28T08:15:39.172Z,33.10
2022-11-28T08:18:11.082Z,27.10
2022-11-28T08:20:42.782Z,31.80
2022-11-28T08:23:14.538Z,33.90
2022-11-28T08:25:46.308Z,34.30
2022-11-28T08:28:17.978Z,34.40
2022-11-28T08:30:49.759Z,33.70
2022-11-28T08:33:21.605Z,33.70
2022-11-28T08:35:53.785Z,31.00
2022-11-28T08:38:25.647Z,32.10
2022-11-28T08:41:05.623Z,35.30
2022-11-28T08:43:38.609Z,32.70
2022-11-28T08:46:13.884Z,34.10
2022-11-28T08:48:46.048Z,33.10
2022-11-28T08:51:24.702Z,34.20
2022-11-28T08:54:01.676Z,32.10
2022-11-28T08:56:33.796Z,33.60
2022-11-28T08:59:07.209Z,34.70
2022-11-28T09:01:39.688Z,32.10
2022-11-28T09:04:12.026Z,31.40
2022-11-28T09:06:43.856Z,32.20
2022-11-28T09:09:16.869Z,33.50
2022-11-28T09:11:49.088Z,33.10
2022-11-28T09:14:21.651Z,31.50
2022-11-28T09:17:01.810Z,31.70
2022-11-28T09:19:43.988Z,32.80
2022-11-28T09:22:17.020Z,33.40
2022-11-28T09:24:48.913Z,34.90
2022-11-28T09:27:20.614Z,34.40
2022-11-28T09:29:52.306Z,33.40
2022-11-28T09:32:24.387Z,34.40
2022-11-28T09:34:56.045Z,33.00
2022-11-28T09:37:28.458Z,34.80
2022-11-28T09:40:13.239Z,34.50
2022-11-28T09:42:48.187Z,33.40
2022-11-28T09:45:23.378Z,31.90
2022-11-28T09:47:59.178Z,34.00
2022-11-28T09:50:35.816Z,32.10
2022-11-28T09:53:21.669Z,27.70
2022-11-28T09:55:56.925Z,31.10
2022-11-28T09:58:33.169Z,32.40
2022-11-28T10:01:17.894Z,27.60
2022-11-28T10:03:57.421Z,32.90
2022-11-28T10:06:37.100Z,34.30
2022-11-28T10:09:32.925Z,35.80
2022-11-28T10:12:28.169Z,33.90
2022-11-28T10:15:18.837Z,34.40
2022-11-28T10:18:06.489Z,33.70
2022-11-28T10:20:42.498Z,35.90
2022-11-28T10:23:23.718Z,35.90
2022-11-28T10:28:34.169Z,34.40
2022-11-28T10:31:12.231Z,35.20
2022-11-28T10:33:49.971Z,36.20
2022-11-28T10:36:40.043Z,36.90
2022-11-28T10:39:17.365Z,35.60
2022-11-28T10:42:11.706Z,38.10
2022-11-28T10:45:02.118Z,37.90
2022-11-28T10:47:54.463Z,39.50
2022-11-28T10:50:34.654Z,38.20
2022-11-28T10:53:14.741Z,39.40
2022-11-28T10:55:58.201Z,36.60
2022-11-28T10:58:33.863Z,37.10
2022-11-28T11:01:05.969Z,38.80
2022-11-28T11:03:40.495Z,37.40
2022-11-28T11:06:12.285Z,37.90
2022-11-28T11:08:46.625Z,37.60
2022-11-28T11:11:28.253Z,40.40
2022-11-28T11:14:02.939Z,35.20
2022-11-28T11:16:51.967Z,36.50
2022-11-28T11:19:30.069Z,34.10
2022-11-28T11:22:04.837Z,34.90
2022-11-28T11:24:36.588Z,35.80
2022-11-28T11:27:19.830Z,35.00
2022-11-28T11:29:54.429Z,34.50
2022-11-28T11:32:29.689Z,33.80
2022-11-28T11:35:02.237Z,37.60
2022-11-28T11:37:37.383Z,36.60
2022-11-28T11:40:47.393Z,35.20
2022-11-28T11:44:05.241Z,35.80
2022-11-28T11:47:47.977Z,37.10
2022-11-28T11:50:36.215Z,36.80
2022-11-28T11:53:13.884Z,36.10
2022-11-28T11:55:52.325Z,37.20
2022-11-28T11:58:27.951Z,38.50
2022-11-28T12:01:02.166Z,38.20
2022-11-28T12:03:41.400Z,36.80
2022-11-28T12:06:18.711Z,36.50
2022-11-28T12:08:54.904Z,37.90
2022-11-28T12:11:30.799Z,39.00
2022-11-28T12:14:14.333Z,37.50
2022-11-28T12:16:53.351Z,37.10
2022-11-28T12:19:34.827Z,36.60
2022-11-28T12:22:17.436Z,35.60
2022-11-28T12:25:02.571Z,37.30
2022-11-28T12:27:50.962Z,35.90
2022-11-28T12:30:40.455Z,36.80
2022-11-28T12:33:28.591Z,37.10
2022-11-28T12:36:11.910Z,35.90
2022-11-28T12:39:01.494Z,36.40
2022-11-28T12:41:57.537Z,33.00
2022-11-28T12:44:43.707Z,35.60
2022-11-28T12:47:26.481Z,36.10
2022-11-28T12:50:15.952Z,36.30
2022-11-28T12:52:57.113Z,35.60
2022-11-28T12:55:37.646Z,35.90
2022-11-28T12:58:18.629Z,34.90
2022-11-28T13:00:58.533Z,36.60
2022-11-28T13:03:42.347Z,36.80
2022-11-28T13:06:32.060Z,35.70
2022-11-28T13:09:19.708Z,36.20
2022-11-28T13:12:02.504Z,36.50
2022-11-28T13:14:45.943Z,36.70
2022-11-28T13:17:30.298Z,36.80
2022-11-28T13:20:13.307Z,36.90
2022-11-28T13:22:55.837Z,36.20
2022-11-28T13:25:36.194Z,37.60
2022-11-28T13:28:14.394Z,38.20
2022-11-28T13:30:51.355Z,33.40
2022-11-28T13:39:40.571Z,33.50
2022-11-28T13:42:59.410Z,33.20
2022-11-28T13:45:31.968Z,33.60
2022-11-28T13:51:34.506Z,34.40
2022-11-28T13:54:46.545Z,33.80
2022-11-28T13:57:38.352Z,35.50
2022-11-28T14:00:25.115Z,34.40
2022-11-28T14:03:00.208Z,35.70
2022-11-28T14:05:37.704Z,34.90
2022-11-28T14:08:10.000Z,35.70
2022-11-28T14:10:57.655Z,36.90
2022-11-28T14:13:48.596Z,36.40
2022-11-28T14:16:32.167Z,32.00
2022-11-28T14:19:23.787Z,33.10
2022-11-28T14:22:10.263Z,34.30
2022-11-28T14:24:56.099Z,32.10
2022-11-28T14:27:31.064Z,31.90
2022-11-28T14:30:03.712Z,33.60
2022-11-28T14:32:45.639Z,33.50
2022-11-28T14:35:40.007Z,33.50
2022-11-28T14:38:43.243Z,27.20
2022-11-28T14:41:15.877Z,32.70
2022-11-28T14:43:48.761Z,33.90
2022-11-28T14:46:27.438Z,36.10
2022-11-28T14:49:22.190Z,34.50
2022-11-28T14:52:37.899Z,32.70
2022-11-28T14:55:19.294Z,34.00
2022-11-28T14:57:58.235Z,32.60
2022-11-28T15:00:51.814Z,33.30
2022-11-28T15:03:36.552Z,31.80
2022-11-28T15:06:14.737Z,35.10
2022-11-28T15:09:05.526Z,38.30
2022-11-28T15:11:48.538Z,40.30
2022-11-28T15:14:24.558Z,37.40
2022-11-28T15:17:02.466Z,37.00
2022-11-28T15:19:38.998Z,35.30
2022-11-28T15:22:31.972Z,34.60
2022-11-28T15:25:03.699Z,34.50
2022-11-28T15:27:35.456Z,34.70
2022-11-28T15:30:28.161Z,35.40
2022-11-28T15:33:01.283Z,36.10
2022-11-28T15:35:33.327Z,38.00
2022-11-28T15:38:05.049Z,38.30
2022-11-28T15:40:37.964Z,36.40
2022-11-28T15:43:13.262Z,37.20
2022-11-28T15:45:50.758Z,37.80
2022-11-28T15:48:39.754Z,34.70
2022-11-28T15:51:27.563Z,36.50
2022-11-28T15:53:59.809Z,34.30
2022-11-28T15:56:31.509Z,34.80
2022-11-28T15:59:03.109Z,34.60
2022-11-28T16:01:35.471Z,41.90
2022-11-28T16:04:12.061Z,41.90
2022-11-28T16:06:50.175Z,38.40
2022-11-28T16:09:30.856Z,36.50
2022-11-28T16:12:03.271Z,35.80
2022-11-28T16:14:43.755Z,36.80
2022-11-28T16:17:23.630Z,37.50
2022-11-28T16:19:57.441Z,38.00
2022-11-28T16:22:34.622Z,36.40
2022-11-28T16:25:21.878Z,36.30
2022-11-28T16:27:54.164Z,36.00
2022-11-28T16:30:36.800Z,35.10
2022-11-28T16:33:38.660Z,36.20
2022-11-28T16:36:21.511Z,36.00
2022-11-28T16:38:54.945Z,35.40
2022-11-28T16:41:30.673Z,35.40
2022-11-28T16:44:06.106Z,36.40
2022-11-28T16:46:40.148Z,33.80
2022-11-28T16:49:34.960Z,33.60
2022-11-28T16:52:48.699Z,35.00
2022-11-28T16:55:46.135Z,36.10
2022-11-28T16:58:25.372Z,32.20
2022-11-28T17:01:04.690Z,34.30
2022-11-28T17:03:55.530Z,34.90
2022-11-28T17:06:34.187Z,33.80
2022-11-28T17:09:08.082Z,33.20
2022-11-28T17:11:43.983Z,36.60
2022-11-28T17:14:16.258Z,35.80
2022-11-28T17:16:47.891Z,35.40
2022-11-28T17:19:21.751Z,34.30
2022-11-28T17:21:55.626Z,35.50
2022-11-28T17:24:33.052Z,35.40
2022-11-28T17:27:07.678Z,36.20
2022-11-28T17:29:39.291Z,36.10
2022-11-28T17:32:14.527Z,35.40
2022-11-28T17:34:46.605Z,35.10
2022-11-28T17:37:18.586Z,34.90
2022-11-28T17:40:05.003Z,34.40
2022-11-28T17:42:36.701Z,35.90
2022-11-28T17:45:15.979Z,34.60
2022-11-28T17:47:47.645Z,38.20
2022-11-28T17:50:23.474Z,37.30
2022-11-28T17:52:55.136Z,39.60
2022-11-28T17:55:26.825Z,39.60
2022-11-28T17:58:01.210Z,36.80
2022-11-28T18:00:34.709Z,38.80
2022-11-28T18:03:08.858Z,38.30
2022-11-28T18:05:43.447Z,36.90
2022-11-28T18:08:20.585Z,36.90
2022-11-28T18:11:06.621Z,40.20
2022-11-28T18:13:42.564Z,38.80
2022-11-28T18:16:15.818Z,37.50
2022-11-28T18:18:47.871Z,37.50
2022-11-28T18:21:21.644Z,38.10
2022-11-28T18:23:54.585Z,36.60
2022-11-28T18:26:27.403Z,38.20
2022-11-28T18:28:59.025Z,41.30
2022-11-28T18:31:32.023Z,41.20
2022-11-28T18:34:05.762Z,40.70
2022-11-28T18:36:39.592Z,39.40
2022-11-28T18:39:15.053Z,40.90
2022-11-28T18:41:46.772Z,39.60
2022-11-28T18:44:18.400Z,41.60
2022-11-28T18:46:50.049Z,42.40
2022-11-28T18:49:21.785Z,41.90
2022-11-28T18:51:55.888Z,37.60
2022-11-28T18:54:28.102Z,39.20
2022-11-28T18:56:59.866Z,40.80
2022-11-28T18:59:31.641Z,37.20
2022-11-28T19:02:03.330Z,43.60
2022-11-28T19:04:37.209Z,40.20
2022-11-28T19:07:09.696Z,44.20
2022-11-28T19:09:41.702Z,41.70
2022-11-28T19:12:14.029Z,42.60
2022-11-28T19:14:45.640Z,39.50
2022-11-28T19:17:18.485Z,39.20
2022-11-28T19:19:53.243Z,40.40
2022-11-28T19:22:25.119Z,39.20
2022-11-28T19:24:56.738Z,42.40
2022-11-28T19:27:28.389Z,43.40
2022-11-28T19:29:59.979Z,42.60
2022-11-28T19:32:32.809Z,38.30
2022-11-28T19:35:04.524Z,40.80
2022-11-28T19:37:36.178Z,37.80
2022-11-28T19:40:14.445Z,39.50
2022-11-28T19:42:46.144Z,35.40
2022-11-28T19:45:25.413Z,38.90
2022-11-28T19:47:57.020Z,38.60
2022-11-28T19:50:28.688Z,38.90
2022-11-28T19:53:00.361Z,38.80
2022-11-28T19:55:31.950Z,40.30
2022-11-28T19:58:03.709Z,38.40
2022-11-28T20:00:35.378Z,41.00
2022-11-28T20:03:07.477Z,33.50
2022-11-28T20:05:41.235Z,39.10
2022-11-28T20:08:12.921Z,39.70
2022-11-28T20:10:44.789Z,38.70
2022-11-28T20:13:16.429Z,38.80
2022-11-28T20:15:50.597Z,38.40
2022-11-28T20:18:23.275Z,34.40
2022-11-28T20:20:57.506Z,37.10
2022-11-28T20:23:30.315Z,37.30
2022-11-28T20:26:06.905Z,36.80
2022-11-28T20:28:43.052Z,37.50
2022-11-28T20:31:21.374Z,34.20
2022-11-28T20:33:54.597Z,35.80
2022-11-28T20:36:28.399Z,36.80
2022-11-28T20:39:00.559Z,35.20
2022-11-28T20:41:32.623Z,35.90
2022-11-28T20:44:04.375Z,36.60
2022-11-28T20:46:36.451Z,37.10
2022-11-28T20:49:09.252Z,37.10
2022-11-28T20:51:41.237Z,36.40
2022-11-28T20:54:15.568Z,35.30
2022-11-28T20:59:42.869Z,36.10
2022-11-28T21:02:15.792Z,36.90
2022-11-28T21:04:47.634Z,36.00
2022-11-28T21:07:19.384Z,34.00
2022-11-28T21:09:51.201Z,34.20
2022-11-28T21:12:22.844Z,35.20
2022-11-28T21:14:55.209Z,35.00
2022-11-28T21:17:29.723Z,33.60
2022-11-28T21:20:03.786Z,37.00
2022-11-28T21:22:37.278Z,36.70
2022-11-28T21:25:11.847Z,36.00
2022-11-28T21:27:43.611Z,36.80
2022-11-28T21:30:17.870Z,35.80
2022-11-28T21:32:55.474Z,38.10
2022-11-28T21:35:27.270Z,36.10
2022-11-28T21:37:59.213Z,36.80
2022-11-28T21:40:37.562Z,36.40
2022-11-28T21:43:09.242Z,37.30
2022-11-28T21:45:40.888Z,37.90
2022-11-28T21:48:12.464Z,36.90
2022-11-28T21:50:50.195Z,41.30
2022-11-28T21:53:21.943Z,37.70
2022-11-28T21:55:55.259Z,34.60
2022-11-28T21:58:28.488Z,39.10
2022-11-28T22:01:05.870Z,36.60
2022-11-28T22:03:37.527Z,35.00
2022-11-28T22:06:14.047Z,35.50
2022-11-28T22:08:48.648Z,33.60
2022-11-28T22:11:21.246Z,36.50
2022-11-28T22:13:53.338Z,35.70
2022-11-28T22:16:28.457Z,36.00
2022-11-28T22:19:01.160Z,35.90
2022-11-28T22:24:25.014Z,35.60
2022-11-28T22:26:57.182Z,32.70
2022-11-28T22:29:28.893Z,35.70
2022-11-28T22:32:03.400Z,35.40
2022-11-28T22:34:39.661Z,35.90
2022-11-28T22:37:11.913Z,34.50
2022-11-28T22:39:43.504Z,33.90
2022-11-28T22:42:15.136Z,35.00
2022-11-28T22:44:47.872Z,35.30
2022-11-28T22:47:19.734Z,36.10
2022-11-28T22:49:51.390Z,35.10
2022-11-28T22:52:23.088Z,36.20
2022-11-28T22:54:54.751Z,33.20
2022-11-28T22:57:26.444Z,35.20
2022-11-28T22:59:58.093Z,33.40
2022-11-28T23:02:30.750Z,34.70
2022-11-28T23:05:02.602Z,32.90
2022-11-28T23:07:34.371Z,33.30
2022-11-28T23:10:13.651Z,34.40
2022-11-28T23:12:45.591Z,34.10
2022-11-28T23:15:17.412Z,31.60
2022-11-28T23:17:51.366Z,32.90
2022-11-28T23:20:24.751Z,33.20
2022-11-28T23:22:56.408Z,34.90
2022-11-28T23:25:28.029Z,34.30
2022-11-28T23:27:59.654Z,34.30
2022-11-28T23:30:31.486Z,32.80
2022-11-28T23:33:03.185Z,33.20
2022-11-28T23:35:34.822Z,34.90
2022-11-28T23:38:06.558Z,32.90
2022-11-28T23:40:38.212Z,33.60
2022-11-28T23:43:09.855Z,34.60
2022-11-28T23:45:41.590Z,34.00
2022-11-28T23:48:15.317Z,31.80
2022-11-28T23:50:48.323Z,33.70
2022-11-28T23:53:19.984Z,31.30
2022-11-28T23:55:51.658Z,33.10
2022-11-28T23:58:23.351Z,33.00
